Time;durP1;ratioP1;P1;durP2;ratioP2;P2;SDS_P1;SDS_P2;PMS_P1;PMS_P2;Temp;Humidity;BMP_temperature;BMP_pressure;BME280_temperature;BME280_humidity;BME280_pressure;Samples;Min_cycle;Max_cycle;Signal;HPM_P1;HPM_P2
2024/02/02 00:00:47;;;;;;;7.73;7.63;;;4.50;99.90;;;;;;5047586;28;21545;-72
2024/02/02 00:03:15;;;;;;;7.63;7.53;;;4.60;99.90;;;;;;5052693;28;20459;-72
2024/02/02 00:05:42;;;;;;;7.80;7.70;;;4.60;99.90;;;;;;5048060;28;20979;-71
2024/02/02 00:08:11;;;;;;;7.70;7.60;;;4.70;99.90;;;;;;5055651;28;20596;-72
2024/02/02 00:10:39;;;;;;;7.40;7.30;;;4.60;99.90;;;;;;5057104;28;20502;-72
2024/02/02 00:13:06;;;;;;;7.80;7.70;;;4.60;99.90;;;;;;5049645;28;20471;-70
2024/02/02 00:15:33;;;;;;;7.70;7.60;;;4.60;99.90;;;;;;5056692;28;20549;-70
2024/02/02 00:18:00;;;;;;;8.50;8.40;;;4.60;99.90;;;;;;5060538;28;20540;-70
2024/02/02 00:20:29;;;;;;;8.20;8.10;;;4.70;99.90;;;;;;5042239;28;20472;-71
2024/02/02 00:22:56;;;;;;;8.20;8.10;;;4.80;99.90;;;;;;5058710;28;20566;-71
2024/02/02 00:25:23;;;;;;;7.93;7.83;;;4.80;99.90;;;;;;5053729;28;20944;-71
2024/02/02 00:27:50;;;;;;;8.00;7.90;;;4.90;99.90;;;;;;5061783;28;20497;-71
2024/02/02 00:30:19;;;;;;;8.30;8.20;;;4.90;99.90;;;;;;5055813;28;20490;-71
2024/02/02 00:32:46;;;;;;;8.40;8.30;;;4.80;99.90;;;;;;5055037;28;20890;-71
2024/02/02 00:35:15;;;;;;;8.33;8.23;;;4.90;99.90;;;;;;5056669;28;20711;-71
2024/02/02 00:37:46;;;;;;;8.30;8.20;;;5.00;99.90;;;;;;5046662;28;20505;-72
2024/02/02 00:40:29;;;;;;;8.20;8.10;;;5.00;99.90;;;;;;5047232;28;20515;-72
2024/02/02 00:42:56;;;;;;;8.20;8.10;;;5.10;99.90;;;;;;5059500;28;20490;-72
2024/02/02 00:45:23;;;;;;;8.77;8.60;;;5.00;99.90;;;;;;5049887;28;20477;-72
2024/02/02 00:47:50;;;;;;;8.50;8.40;;;5.10;99.90;;;;;;5052551;28;20491;-71
2024/02/02 00:50:18;;;;;;;8.10;8.00;;;4.90;99.90;;;;;;5051831;28;20551;-71
2024/02/02 00:52:46;;;;;;;8.30;8.20;;;4.90;99.90;;;;;;5054630;28;20508;-71
2024/02/02 00:55:13;;;;;;;9.03;8.83;;;5.00;99.90;;;;;;5055435;28;20849;-71
2024/02/02 00:57:40;;;;;;;9.00;8.80;;;5.00;99.90;;;;;;5044165;28;20939;-71
2024/02/02 01:00:10;;;;;;;8.70;8.60;;;5.00;99.90;;;;;;5045474;28;20576;-72
2024/02/02 01:02:39;;;;;;;8.37;8.27;;;5.00;99.90;;;;;;5053856;28;20829;-71
2024/02/02 01:05:07;;;;;;;7.63;7.53;;;5.10;99.90;;;;;;5050371;28;20491;-72
2024/02/02 01:07:33;;;;;;;8.90;8.70;;;5.10;99.90;;;;;;5049382;28;21306;-72
2024/02/02 01:10:05;;;;;;;8.40;8.30;;;5.20;99.90;;;;;;5056219;28;20464;-72
2024/02/02 01:12:47;;;;;;;8.30;8.20;;;5.20;99.90;;;;;;5048694;28;20496;-70
2024/02/02 01:15:16;;;;;;;8.40;8.30;;;5.20;99.90;;;;;;5048476;28;20470;-71
2024/02/02 01:17:45;;;;;;;8.50;8.40;;;5.20;99.90;;;;;;5052472;28;20472;-72
2024/02/02 01:20:13;;;;;;;8.07;7.97;;;5.20;99.90;;;;;;5046893;28;20609;-72
2024/02/02 01:22:41;;;;;;;8.90;8.70;;;5.30;99.90;;;;;;5050010;28;20586;-72
2024/02/02 01:25:11;;;;;;;8.97;8.77;;;5.30;99.90;;;;;;5045881;28;20546;-72
2024/02/02 01:27:40;;;;;;;9.30;9.10;;;5.40;99.90;;;;;;5052866;28;21056;-72
2024/02/02 01:30:08;;;;;;;8.77;8.60;;;5.40;99.90;;;;;;5051186;28;20572;-72
2024/02/02 01:32:36;;;;;;;9.00;8.80;;;5.30;99.90;;;;;;5050553;28;20460;-72
2024/02/02 01:35:03;;;;;;;8.33;8.23;;;5.50;99.90;;;;;;5056376;28;20696;-72
2024/02/02 01:37:30;;;;;;;8.40;8.30;;;5.50;99.90;;;;;;5061620;28;20475;-72
2024/02/02 01:39:57;;;;;;;8.60;8.50;;;5.30;99.90;;;;;;5055713;28;20782;-72
2024/02/02 01:42:26;;;;;;;8.30;8.20;;;5.40;99.90;;;;;;5054264;28;20475;-71
2024/02/02 01:44:52;;;;;;;8.03;7.93;;;5.40;99.90;;;;;;5057945;28;20476;-71
2024/02/02 01:47:22;;;;;;;8.60;8.50;;;5.40;99.90;;;;;;5046878;28;20462;-72
2024/02/02 01:49:49;;;;;;;8.20;8.10;;;5.50;99.90;;;;;;5054338;28;20466;-71
2024/02/02 01:52:16;;;;;;;8.07;7.97;;;5.40;99.90;;;;;;5052463;28;20914;-72
2024/02/02 01:54:43;;;;;;;8.40;8.30;;;5.50;99.90;;;;;;5057092;28;20453;-71
2024/02/02 01:57:10;;;;;;;8.20;8.10;;;5.50;99.90;;;;;;5055468;28;20487;-71
2024/02/02 01:59:38;;;;;;;8.70;8.60;;;5.50;99.90;;;;;;5049739;28;20546;-71
2024/02/02 02:02:06;;;;;;;8.40;8.30;;;5.40;99.90;;;;;;5059444;28;20498;-71
2024/02/02 02:04:33;;;;;;;7.90;7.80;;;5.40;99.90;;;;;;5049862;28;20459;-72
2024/02/02 02:07:02;;;;;;;7.70;7.60;;;5.30;99.90;;;;;;5051954;28;20959;-71
2024/02/02 02:09:29;;;;;;;7.83;7.73;;;5.30;99.90;;;;;;5058038;28;20502;-71
2024/02/02 02:11:56;;;;;;;7.80;7.70;;;5.30;99.90;;;;;;5056546;28;20942;-71
2024/02/02 02:14:23;;;;;;;7.47;7.37;;;5.40;99.90;;;;;;5051792;28;20474;-72
2024/02/02 02:16:52;;;;;;;7.40;7.30;;;5.30;99.90;;;;;;5056802;28;20463;-72
2024/02/02 02:19:18;;;;;;;7.10;7.00;;;5.30;99.90;;;;;;5055015;28;20550;-72
2024/02/02 02:21:47;;;;;;;7.30;7.20;;;5.40;99.90;;;;;;5057417;28;20456;-72
2024/02/02 02:24:16;;;;;;;7.60;7.50;;;5.40;99.90;;;;;;5059149;28;20464;-72
2024/02/02 02:26:44;;;;;;;7.73;7.63;;;5.50;99.90;;;;;;5056654;28;20843;-71
2024/02/02 02:29:11;;;;;;;8.20;8.10;;;5.60;99.90;;;;;;5052342;28;20492;-71
2024/02/02 02:31:39;;;;;;;7.97;7.87;;;5.60;99.90;;;;;;5049913;28;20465;-71
2024/02/02 02:34:06;;;;;;;8.53;8.43;;;5.50;99.90;;;;;;5050824;28;20549;-72
2024/02/02 02:36:33;;;;;;;8.83;8.63;;;5.60;99.90;;;;;;5060063;28;20479;-72
2024/02/02 02:39:01;;;;;;;9.00;8.80;;;5.70;99.90;;;;;;5059289;28;21173;-72
2024/02/02 02:41:28;;;;;;;9.07;8.87;;;5.70;99.90;;;;;;5058675;28;20473;-72
2024/02/02 02:43:55;;;;;;;9.30;9.10;;;5.70;99.90;;;;;;5043302;28;20472;-72
2024/02/02 02:46:22;;;;;;;9.03;8.83;;;5.70;99.90;;;;;;5051243;28;20495;-72
2024/02/02 02:48:49;;;;;;;9.30;9.10;;;5.70;99.90;;;;;;5052892;28;20495;-72
2024/02/02 02:51:16;;;;;;;9.60;9.40;;;5.70;99.90;;;;;;5047232;28;20466;-72
2024/02/02 02:53:43;;;;;;;9.20;9.00;;;5.70;99.90;;;;;;5050068;28;20826;-72
2024/02/02 02:56:11;;;;;;;9.17;8.97;;;5.70;99.90;;;;;;5048813;28;20475;-72
2024/02/02 02:58:38;;;;;;;9.13;8.93;;;5.70;99.90;;;;;;5053086;28;20476;-72
2024/02/02 03:01:05;;;;;;;9.43;9.23;;;5.70;99.90;;;;;;5056355;28;20452;-72
2024/02/02 03:03:32;;;;;;;9.60;9.40;;;5.70;99.90;;;;;;5050986;28;20464;-72
2024/02/02 03:05:59;;;;;;;9.60;9.40;;;5.70;99.90;;;;;;5048772;28;20929;-72
2024/02/02 03:08:26;;;;;;;9.83;9.63;;;5.60;99.90;;;;;;5053522;28;20476;-72
2024/02/02 03:10:52;;;;;;;9.90;9.70;;;5.70;99.90;;;;;;5047542;28;20979;-72
2024/02/02 03:13:21;;;;;;;9.90;9.70;;;5.70;99.90;;;;;;5050997;28;20464;-72
2024/02/02 03:15:48;;;;;;;10.20;10.00;;;5.70;99.90;;;;;;5051488;28;20464;-72
2024/02/02 03:18:15;;;;;;;9.80;9.60;;;5.70;99.90;;;;;;5049088;28;20549;-72
2024/02/02 03:20:42;;;;;;;10.07;9.87;;;5.70;99.90;;;;;;5051580;28;20562;-72
2024/02/02 03:23:09;;;;;;;9.80;9.60;;;5.80;99.90;;;;;;5050624;28;20460;-72
2024/02/02 03:25:37;;;;;;;10.00;9.80;;;5.70;99.90;;;;;;5050779;28;20467;-72
2024/02/02 03:28:04;;;;;;;9.67;9.47;;;5.70;99.90;;;;;;5049840;28;20472;-72
2024/02/02 03:30:33;;;;;;;9.97;9.77;;;5.60;99.90;;;;;;5047004;28;20468;-72
2024/02/02 03:33:00;;;;;;;10.13;9.93;;;5.70;99.90;;;;;;5050924;28;20460;-72
2024/02/02 03:35:27;;;;;;;10.33;10.13;;;5.70;99.90;;;;;;5053927;28;20463;-72
2024/02/02 03:37:54;;;;;;;10.23;10.03;;;5.80;99.90;;;;;;5046853;28;20557;-72
2024/02/02 03:40:21;;;;;;;10.30;10.10;;;5.80;99.90;;;;;;5050973;28;20567;-71
2024/02/02 03:42:48;;;;;;;9.93;9.73;;;5.80;99.90;;;;;;5049233;28;20929;-71
2024/02/02 03:45:15;;;;;;;10.07;9.87;;;5.80;99.90;;;;;;5047163;28;20793;-71
2024/02/02 03:47:44;;;;;;;10.27;10.07;;;5.80;99.90;;;;;;5060712;28;20455;-71
2024/02/02 03:50:11;;;;;;;11.03;10.73;;;5.80;99.90;;;;;;5050165;28;20505;-71
2024/02/02 03:52:38;;;;;;;11.60;11.30;;;5.90;99.90;;;;;;5053626;28;20460;-71
2024/02/02 03:55:06;;;;;;;11.67;11.37;;;5.90;99.90;;;;;;5050817;28;20512;-71
2024/02/02 03:57:33;;;;;;;11.53;11.23;;;5.90;99.90;;;;;;5051438;28;20480;-71
2024/02/02 04:00:00;;;;;;;10.90;10.60;;;5.90;99.90;;;;;;5054709;28;20472;-71
2024/02/02 04:02:27;;;;;;;11.17;10.87;;;5.80;99.90;;;;;;5055847;28;20600;-71
2024/02/02 04:04:56;;;;;;;10.97;10.67;;;5.70;99.90;;;;;;5051258;28;20478;-71
2024/02/02 04:07:23;;;;;;;10.87;10.57;;;5.80;99.90;;;;;;5045736;28;20725;-71
2024/02/02 04:09:50;;;;;;;11.23;10.93;;;5.80;99.90;;;;;;5052060;28;20496;-71
2024/02/02 04:12:17;;;;;;;10.70;10.40;;;5.80;99.90;;;;;;5055725;28;20455;-71
2024/02/02 04:14:45;;;;;;;10.43;10.23;;;5.70;99.90;;;;;;5047397;28;20472;-71
2024/02/02 04:17:12;;;;;;;10.30;10.10;;;5.70;99.90;;;;;;5051426;28;20456;-71
2024/02/02 04:19:38;;;;;;;10.33;10.13;;;5.70;99.90;;;;;;5046725;28;20495;-71
2024/02/02 04:22:07;;;;;;;10.50;10.30;;;5.70;99.90;;;;;;5052310;28;20474;-71
2024/02/02 04:24:34;;;;;;;10.07;9.87;;;5.70;99.90;;;;;;5052158;28;20455;-71
2024/02/02 04:27:00;;;;;;;9.97;9.77;;;5.70;99.90;;;;;;5050325;28;20579;-71
2024/02/02 04:29:28;;;;;;;9.90;9.70;;;5.70;99.90;;;;;;5050289;28;20570;-71
2024/02/02 04:31:55;;;;;;;9.83;9.63;;;5.60;99.90;;;;;;5045395;28;20475;-70
2024/02/02 04:34:21;;;;;;;9.80;9.60;;;5.60;99.90;;;;;;5044773;28;20589;-71
2024/02/02 04:36:48;;;;;;;9.43;9.23;;;5.60;99.90;;;;;;5052042;28;20466;-71
2024/02/02 04:39:17;;;;;;;9.20;9.00;;;5.60;99.90;;;;;;5051179;28;20551;-71
2024/02/02 04:41:44;;;;;;;9.03;8.83;;;5.50;99.90;;;;;;5054549;28;20463;-71
2024/02/02 04:44:11;;;;;;;8.50;8.40;;;5.50;99.90;;;;;;5049865;28;20477;-71
2024/02/02 04:46:39;;;;;;;8.43;8.33;;;5.50;99.90;;;;;;5047138;28;20496;-71
2024/02/02 04:49:05;;;;;;;8.97;8.77;;;5.40;99.90;;;;;;5051044;28;20579;-72
2024/02/02 04:51:32;;;;;;;9.13;8.93;;;5.50;99.90;;;;;;5047766;28;20964;-71
2024/02/02 04:54:00;;;;;;;9.10;8.90;;;5.40;99.90;;;;;;5045655;28;20981;-71
2024/02/02 04:56:28;;;;;;;9.17;8.97;;;5.40;99.90;;;;;;5043812;28;20496;-71
2024/02/02 04:58:55;;;;;;;9.60;9.40;;;5.50;99.90;;;;;;5046975;28;20492;-71
2024/02/02 05:01:22;;;;;;;8.60;8.50;;;5.50;99.90;;;;;;5045895;28;20793;-71
2024/02/02 05:03:49;;;;;;;9.53;9.33;;;5.50;99.90;;;;;;5049489;28;20466;-71
2024/02/02 05:06:17;;;;;;;9.80;9.60;;;5.50;99.90;;;;;;5047508;28;20495;-71
2024/02/02 05:08:44;;;;;;;9.57;9.37;;;5.50;99.90;;;;;;5060575;28;21005;-71
2024/02/02 05:11:12;;;;;;;10.30;10.10;;;5.50;99.90;;;;;;5050001;28;20655;-70
2024/02/02 05:13:40;;;;;;;9.50;9.30;;;5.40;99.90;;;;;;5046127;28;20467;-71
2024/02/02 05:16:09;;;;;;;10.37;10.17;;;5.50;99.90;;;;;;5052488;28;20487;-71
2024/02/02 05:18:36;;;;;;;9.93;9.73;;;5.50;99.90;;;;;;5053988;28;20555;-70
2024/02/02 05:21:03;;;;;;;10.10;9.90;;;5.40;99.90;;;;;;5046304;28;20981;-71
2024/02/02 05:23:30;;;;;;;10.10;9.90;;;5.40;99.90;;;;;;5045341;28;20464;-71
2024/02/02 05:25:57;;;;;;;9.90;9.70;;;5.30;99.90;;;;;;5049311;28;20818;-71
2024/02/02 05:28:24;;;;;;;10.10;9.90;;;5.30;99.90;;;;;;5053295;28;20470;-71
2024/02/02 05:30:52;;;;;;;10.10;9.90;;;5.20;99.90;;;;;;5055761;28;20457;-71
2024/02/02 05:33:19;;;;;;;10.60;10.30;;;5.20;99.90;;;;;;5050917;28;20460;-71
2024/02/02 05:35:46;;;;;;;10.00;9.80;;;5.30;99.90;;;;;;5049713;28;20476;-71
2024/02/02 05:38:13;;;;;;;9.90;9.70;;;5.30;99.90;;;;;;5055093;28;20848;-71
2024/02/02 05:40:40;;;;;;;9.53;9.33;;;5.30;99.90;;;;;;5044112;28;20694;-71
2024/02/02 05:43:10;;;;;;;9.67;9.47;;;5.30;99.90;;;;;;5048759;28;20472;-71
2024/02/02 05:45:37;;;;;;;10.13;9.93;;;5.30;99.90;;;;;;5048147;28;20543;-71
2024/02/02 05:48:06;;;;;;;10.00;9.80;;;5.30;99.90;;;;;;5052521;28;20468;-71
2024/02/02 05:50:33;;;;;;;10.20;10.00;;;5.30;99.90;;;;;;5044683;28;20503;-71
2024/02/02 05:53:15;;;;;;;9.97;9.77;;;5.30;99.90;;;;;;5053026;28;20478;-71
2024/02/02 05:55:42;;;;;;;10.33;10.13;;;5.30;99.90;;;;;;5045286;28;20649;-71
2024/02/02 05:58:09;;;;;;;9.90;9.70;;;5.30;99.90;;;;;;5054597;28;20488;-71
2024/02/02 06:00:36;;;;;;;10.50;10.30;;;5.20;99.90;;;;;;5053793;28;20456;-71
2024/02/02 06:03:05;;;;;;;11.00;10.70;;;5.30;99.90;;;;;;5060568;28;20458;-71
2024/02/02 06:05:33;;;;;;;10.80;10.50;;;5.20;99.90;;;;;;5052127;28;20452;-72
2024/02/02 06:08:01;;;;;;;11.30;11.00;;;5.20;99.90;;;;;;5051627;28;20829;-71
2024/02/02 06:10:29;;;;;;;10.90;10.60;;;5.20;99.90;;;;;;5045396;28;20590;-70
2024/02/02 06:12:56;;;;;;;11.10;10.80;;;5.30;99.90;;;;;;5050376;28;20476;-72
2024/02/02 06:15:23;;;;;;;11.10;10.80;;;5.20;99.90;;;;;;5061878;28;20954;-71
2024/02/02 06:17:49;;;;;;;11.33;11.03;;;5.20;99.90;;;;;;5058376;28;20487;-70
2024/02/02 06:20:18;;;;;;;11.10;10.80;;;5.20;99.90;;;;;;5051185;28;20455;-70
2024/02/02 06:22:44;;;;;;;11.20;10.90;;;5.10;99.90;;;;;;5052405;28;20465;-70
2024/02/02 06:25:12;;;;;;;11.40;11.10;;;5.10;99.90;;;;;;5049414;28;20464;-71
2024/02/02 06:27:40;;;;;;;10.83;10.53;;;5.10;99.90;;;;;;5054550;28;20865;-70
2024/02/02 06:30:08;;;;;;;11.70;11.40;;;5.20;99.90;;;;;;5059928;28;20509;-70
2024/02/02 06:32:36;;;;;;;11.60;11.30;;;5.10;99.90;;;;;;5060100;28;21027;-70
2024/02/02 06:35:04;;;;;;;11.80;11.50;;;5.10;99.90;;;;;;5060261;28;20759;-71
2024/02/02 06:37:33;;;;;;;11.73;11.43;;;5.20;99.90;;;;;;5057573;28;20799;-71
2024/02/02 06:40:03;;;;;;;11.57;11.27;;;5.10;99.90;;;;;;5054575;28;20919;-71
2024/02/02 06:42:30;;;;;;;11.60;11.30;;;5.20;99.90;;;;;;5049989;28;20468;-71
2024/02/02 06:44:58;;;;;;;12.03;11.73;;;5.10;99.90;;;;;;5049661;28;20467;-70
2024/02/02 06:47:25;;;;;;;12.50;12.10;;;5.10;99.90;;;;;;5054666;28;20447;-71
2024/02/02 06:49:52;;;;;;;12.90;12.50;;;5.00;99.90;;;;;;5050483;28;20533;-71
2024/02/02 06:52:21;;;;;;;13.23;12.83;;;5.00;99.90;;;;;;5055915;28;20460;-71
2024/02/02 06:54:49;;;;;;;12.50;12.10;;;5.10;99.90;;;;;;5049023;28;20966;-71
2024/02/02 06:57:18;;;;;;;12.90;12.50;;;5.10;99.90;;;;;;5049441;28;20497;-71
2024/02/02 06:59:48;;;;;;;12.63;12.23;;;5.10;99.90;;;;;;5057742;28;20666;-71
2024/02/02 07:02:20;;;;;;;13.03;12.63;;;5.10;99.90;;;;;;5049497;28;20468;-71
2024/02/02 07:04:48;;;;;;;13.50;13.07;;;5.20;99.90;;;;;;5051385;28;20468;-69
2024/02/02 07:07:15;;;;;;;13.00;12.60;;;5.30;99.90;;;;;;5053613;28;20455;-70
2024/02/02 07:09:48;;;;;;;13.40;13.00;;;5.20;99.90;;;;;;5058391;28;20673;-69
2024/02/02 07:12:45;;;;;;;13.40;13.00;;;5.20;99.90;;;;;;5056291;28;20871;-70
2024/02/02 07:15:17;;;;;;;13.90;13.40;;;5.10;99.90;;;;;;5052862;28;20460;-69
2024/02/02 07:17:45;;;;;;;13.40;13.00;;;5.10;99.90;;;;;;5051723;28;20458;-70
2024/02/02 07:20:52;;;;;;;13.70;13.30;;;5.00;99.90;;;;;;5057388;28;20525;-70
2024/02/02 07:23:32;;;;;;;13.77;13.27;;;5.00;99.90;;;;;;5048019;28;20794;-70
2024/02/02 07:26:00;;;;;;;13.40;13.00;;;5.00;99.90;;;;;;5050152;28;20455;-70
2024/02/02 07:28:34;;;;;;;14.30;13.80;;;5.00;99.90;;;;;;5055640;28;20851;-71
2024/02/02 07:31:00;;;;;;;14.00;13.50;;;5.00;99.90;;;;;;5052602;28;20855;-71
2024/02/02 07:33:35;;;;;;;13.73;13.23;;;5.00;99.90;;;;;;5043422;28;20472;-71
2024/02/02 07:36:02;;;;;;;13.50;13.10;;;5.00;99.90;;;;;;5049941;28;20485;-71
2024/02/02 07:38:53;;;;;;;13.53;13.13;;;5.10;99.90;;;;;;5052623;28;20471;-71
2024/02/02 07:41:24;;;;;;;12.97;12.57;;;5.10;99.90;;;;;;5050486;28;20462;-71
2024/02/02 07:44:07;;;;;;;13.00;12.60;;;5.10;99.90;;;;;;5045708;28;20468;-71
2024/02/02 07:46:34;;;;;;;13.20;12.80;;;5.10;99.90;;;;;;5051814;28;20472;-71
2024/02/02 07:49:16;;;;;;;12.97;12.57;;;5.20;99.90;;;;;;5045477;28;21018;-71
2024/02/02 07:51:43;;;;;;;13.80;13.40;;;5.20;99.90;;;;;;5049405;28;20804;-71
2024/02/02 07:54:10;;;;;;;14.00;13.50;;;5.30;99.90;;;;;;5050191;28;20497;-71
2024/02/02 07:56:37;;;;;;;13.50;13.10;;;5.30;99.90;;;;;;5052853;28;20510;-71
2024/02/02 07:59:04;;;;;;;13.83;13.43;;;5.30;99.90;;;;;;5048601;28;21002;-71
2024/02/02 08:01:33;;;;;;;13.70;13.30;;;5.40;99.90;;;;;;5049834;28;20939;-71
2024/02/02 08:04:00;;;;;;;13.60;13.20;;;5.50;99.90;;;;;;5044838;28;20594;-71
2024/02/02 08:06:27;;;;;;;13.67;13.27;;;5.50;99.90;;;;;;5049932;28;20472;-71
2024/02/02 08:08:57;;;;;;;13.50;13.10;;;5.60;99.90;;;;;;5051899;28;20558;-71
2024/02/02 08:11:25;;;;;;;14.10;13.60;;;5.60;99.90;;;;;;5043108;28;20496;-71
2024/02/02 08:13:52;;;;;;;13.60;13.13;;;5.60;99.90;;;;;;5047744;28;20561;-71
2024/02/02 08:16:19;;;;;;;12.80;12.40;;;5.60;99.90;;;;;;5047554;28;21082;-71
2024/02/02 08:18:48;;;;;;;13.10;12.70;;;5.70;99.90;;;;;;5048068;28;20579;-70
2024/02/02 08:21:14;;;;;;;13.33;12.93;;;5.70;99.90;;;;;;5046861;28;20827;-71
2024/02/02 08:23:43;;;;;;;13.70;13.30;;;5.80;99.90;;;;;;5049715;28;20539;-71
2024/02/02 08:26:10;;;;;;;13.97;13.47;;;5.80;99.90;;;;;;5048769;28;20464;-71
2024/02/02 08:28:39;;;;;;;13.70;13.30;;;5.90;99.90;;;;;;5045064;28;20463;-71
2024/02/02 08:31:06;;;;;;;14.43;13.93;;;5.90;99.90;;;;;;5049295;28;20577;-71
2024/02/02 08:33:33;;;;;;;14.13;13.63;;;6.00;99.90;;;;;;5047921;28;20463;-71
2024/02/02 08:36:01;;;;;;;13.90;13.40;;;6.00;99.90;;;;;;5043866;28;20794;-71
2024/02/02 08:38:29;;;;;;;14.60;14.10;;;6.10;99.90;;;;;;5048769;28;20551;-71
2024/02/02 08:40:56;;;;;;;14.03;13.57;;;6.10;99.90;;;;;;5045660;28;20523;-71
2024/02/02 08:43:25;;;;;;;14.27;13.77;;;6.20;99.90;;;;;;5045356;28;20473;-71
2024/02/02 08:46:10;;;;;;;14.13;13.63;;;6.30;99.90;;;;;;5051282;28;20467;-71
2024/02/02 08:48:42;;;;;;;14.40;13.90;;;6.30;99.90;;;;;;5048685;28;20453;-71
2024/02/02 08:51:41;;;;;;;14.53;14.03;;;6.30;99.90;;;;;;5044032;28;20570;-71
2024/02/02 08:54:40;;;;;;;14.67;14.17;;;6.30;99.90;;;;;;5047173;28;20464;-71
2024/02/02 08:57:33;;;;;;;14.87;14.37;;;6.40;99.90;;;;;;5046369;28;20569;-71
2024/02/02 09:00:05;;;;;;;15.37;14.77;;;6.50;99.90;;;;;;5049074;28;20909;-71
2024/02/02 09:03:05;;;;;;;15.23;14.73;;;6.60;99.90;;;;;;5043021;28;20472;-71
2024/02/02 09:05:49;;;;;;;15.57;14.97;;;6.60;99.90;;;;;;5048922;28;21002;-71
2024/02/02 09:08:27;;;;;;;14.77;14.27;;;6.60;99.90;;;;;;5043244;28;20475;-71
2024/02/02 09:11:22;;;;;;;14.60;14.10;;;6.70;99.90;;;;;;5045883;28;20495;-71
2024/02/02 09:14:03;;;;;;;15.03;14.53;;;6.80;99.90;;;;;;5050659;28;20456;-71
2024/02/02 09:16:43;;;;;;;15.37;14.77;;;6.80;99.90;;;;;;5044852;28;20468;-71
2024/02/02 09:19:40;;;;;;;15.70;15.10;;;6.90;99.90;;;;;;5048124;28;20475;-71
2024/02/02 09:22:11;;;;;;;15.77;15.17;;;6.90;99.90;;;;;;5038039;28;20462;-71
2024/02/02 09:24:44;;;;;;;15.40;14.80;;;6.90;99.90;;;;;;5046559;28;20463;-71
2024/02/02 09:27:15;;;;;;;14.87;14.37;;;6.90;99.90;;;;;;5043975;28;20463;-71
2024/02/02 09:29:45;;;;;;;14.83;14.33;;;7.00;99.90;;;;;;5049174;28;20469;-71
2024/02/02 09:32:15;;;;;;;15.00;14.40;;;7.00;99.90;;;;;;5047601;28;21017;-71
2024/02/02 09:34:43;;;;;;;14.97;14.37;;;7.00;99.90;;;;;;5048016;28;20454;-71
2024/02/02 09:37:12;;;;;;;14.47;13.97;;;7.10;99.90;;;;;;5048573;28;20756;-71
2024/02/02 09:39:52;;;;;;;15.20;14.60;;;7.10;99.90;;;;;;5047196;28;20673;-71
2024/02/02 09:42:47;;;;;;;15.03;14.43;;;7.20;99.90;;;;;;5049193;28;20455;-70
2024/02/02 09:45:23;;;;;;;14.60;14.10;;;7.30;99.90;;;;;;5042234;28;20942;-71
2024/02/02 09:48:09;;;;;;;15.60;15.00;;;7.30;99.90;;;;;;5048404;28;20463;-71
2024/02/02 09:54:02;;;;;;;15.07;14.47;;;7.30;99.90;;;;;;5053318;28;20461;-71
2024/02/02 09:56:42;;;;;;;15.50;14.90;;;7.40;99.90;;;;;;5029049;28;20493;-71
2024/02/02 09:59:18;;;;;;;14.93;14.43;;;7.40;99.90;;;;;;5051285;28;20833;-71
2024/02/02 10:01:56;;;;;;;15.70;15.10;;;7.50;99.90;;;;;;5048656;28;20472;-71
2024/02/02 10:04:38;;;;;;;14.80;14.30;;;7.50;99.90;;;;;;5052831;28;20478;-71
2024/02/02 10:07:15;;;;;;;14.60;14.10;;;7.60;99.90;;;;;;5051857;28;20466;-70
2024/02/02 10:10:10;;;;;;;15.40;14.80;;;7.70;99.90;;;;;;5053140;28;20474;-70
2024/02/02 10:12:51;;;;;;;15.50;14.90;;;7.70;99.90;;;;;;5049138;28;20467;-71
2024/02/02 10:15:35;;;;;;;15.30;14.70;;;7.70;99.90;;;;;;5052655;28;20507;-70
2024/02/02 10:18:38;;;;;;;15.03;14.43;;;7.70;99.90;;;;;;5049214;28;20985;-71
2024/02/02 10:21:11;;;;;;;15.63;15.03;;;7.70;99.90;;;;;;5049214;28;20926;-70
2024/02/02 10:24:01;;;;;;;15.67;15.07;;;7.80;99.90;;;;;;5052468;28;20456;-70
2024/02/02 10:26:49;;;;;;;15.20;14.60;;;7.80;99.90;;;;;;5047218;28;20475;-71
2024/02/02 10:29:27;;;;;;;15.40;14.80;;;7.90;99.90;;;;;;5050096;28;20459;-70
2024/02/02 10:32:15;;;;;;;15.80;15.20;;;8.00;99.90;;;;;;5052874;28;20484;-70
2024/02/02 10:34:54;;;;;;;15.73;15.13;;;8.00;99.90;;;;;;5051728;28;20463;-71
2024/02/02 10:37:33;;;;;;;15.23;14.63;;;8.10;99.90;;;;;;5052951;28;20985;-70
2024/02/02 10:40:13;;;;;;;14.90;14.40;;;8.10;99.90;;;;;;5051647;28;20786;-70
2024/02/02 10:42:56;;;;;;;14.90;14.40;;;8.20;99.90;;;;;;5052256;28;20467;-70
2024/02/02 10:45:32;;;;;;;14.70;14.20;;;8.20;99.90;;;;;;5044086;28;20457;-71
2024/02/02 10:48:13;;;;;;;14.90;14.40;;;8.20;99.90;;;;;;5054281;28;20468;-71
2024/02/02 10:50:48;;;;;;;15.10;14.50;;;8.00;99.90;;;;;;5052571;28;20478;-71
2024/02/02 10:53:28;;;;;;;15.17;14.57;;;8.00;99.90;;;;;;5056142;28;20453;-72
2024/02/02 10:56:11;;;;;;;15.40;14.80;;;8.10;99.90;;;;;;5051501;28;20493;-70
2024/02/02 10:58:53;;;;;;;14.73;14.23;;;8.20;99.90;;;;;;5048272;28;20500;-71
2024/02/02 11:01:28;;;;;;;14.63;14.13;;;8.50;99.90;;;;;;5051539;28;20467;-71
2024/02/02 11:04:04;;;;;;;14.00;13.50;;;8.50;99.90;;;;;;5049473;28;20466;-70
2024/02/02 11:06:42;;;;;;;14.27;13.77;;;8.60;99.90;;;;;;5049153;28;20583;-71
2024/02/02 11:09:18;;;;;;;14.40;13.90;;;8.80;99.90;;;;;;5052582;28;20475;-70
2024/02/02 11:11:53;;;;;;;14.37;13.87;;;8.70;99.90;;;;;;5044489;28;20595;-70
2024/02/02 11:14:28;;;;;;;14.40;13.90;;;8.60;99.90;;;;;;5048038;28;20463;-70
2024/02/02 11:17:03;;;;;;;14.63;14.13;;;8.60;99.90;;;;;;5049549;28;20462;-71
2024/02/02 11:19:47;;;;;;;14.33;13.83;;;8.80;99.90;;;;;;5052074;28;20513;-74
2024/02/02 11:22:22;;;;;;;14.07;13.57;;;8.80;99.90;;;;;;5050056;28;20637;-71
2024/02/02 11:24:58;;;;;;;13.80;13.30;;;8.90;99.90;;;;;;5052496;28;20781;-70
2024/02/02 11:27:32;;;;;;;13.50;13.10;;;9.10;99.90;;;;;;5047280;28;20475;-68
2024/02/02 11:30:05;;;;;;;14.17;13.67;;;9.20;99.90;;;;;;5046092;28;20459;-68
2024/02/02 11:32:58;;;;;;;13.77;13.30;;;9.10;99.90;;;;;;5050794;28;20580;-71
2024/02/02 11:35:36;;;;;;;14.13;13.63;;;9.30;99.90;;;;;;5049956;28;20463;-71
2024/02/02 11:38:12;;;;;;;14.03;13.53;;;9.30;99.90;;;;;;5050091;28;20561;-69
2024/02/02 11:40:42;;;;;;;14.07;13.57;;;9.30;99.90;;;;;;5049566;28;20471;-69
2024/02/02 11:43:10;;;;;;;14.27;13.77;;;9.40;99.90;;;;;;5045555;28;20464;-72
2024/02/02 11:45:41;;;;;;;13.63;13.23;;;9.30;99.90;;;;;;5046996;28;20462;-69
2024/02/02 11:48:17;;;;;;;14.27;13.77;;;9.60;99.90;;;;;;5050622;28;20520;-69
2024/02/02 11:50:45;;;;;;;14.17;13.67;;;9.70;99.90;;;;;;5048779;28;22149;-70
2024/02/02 11:53:22;;;;;;;14.57;14.07;;;9.70;99.90;;;;;;5050240;28;20455;-70
2024/02/02 11:55:54;;;;;;;14.03;13.53;;;10.00;99.90;;;;;;5043786;28;20479;-69
2024/02/02 11:58:24;;;;;;;14.27;13.77;;;10.20;99.90;;;;;;5048002;28;20483;-69
2024/02/02 12:01:10;;;;;;;14.00;13.50;;;9.90;99.90;;;;;;5050149;28;20506;-71
2024/02/02 12:03:49;;;;;;;14.50;14.00;;;9.90;99.90;;;;;;5050585;28;20471;-69
2024/02/02 12:06:19;;;;;;;14.67;14.17;;;10.00;99.90;;;;;;5041650;28;20554;-69
2024/02/02 12:08:57;;;;;;;14.23;13.73;;;9.70;99.90;;;;;;5049840;28;20718;-70
2024/02/02 12:11:27;;;;;;;14.40;13.90;;;9.70;99.90;;;;;;5050523;28;20494;-69
2024/02/02 12:13:57;;;;;;;14.23;13.73;;;9.70;99.90;;;;;;5049674;28;20469;-69
2024/02/02 12:16:24;;;;;;;14.20;13.70;;;9.50;99.90;;;;;;5044895;28;20460;-69
2024/02/02 12:18:52;;;;;;;14.47;13.97;;;9.60;99.90;;;;;;5050551;28;20554;-69
2024/02/02 12:21:21;;;;;;;14.90;14.40;;;9.50;99.90;;;;;;5042911;28;20846;-69
2024/02/02 12:23:48;;;;;;;14.20;13.70;;;9.20;99.90;;;;;;5050712;28;20470;-71
2024/02/02 12:26:16;;;;;;;14.00;13.50;;;9.30;99.90;;;;;;5050095;28;20982;-69
2024/02/02 12:28:43;;;;;;;14.10;13.60;;;9.50;99.90;;;;;;5047913;28;20462;-69
2024/02/02 12:31:10;;;;;;;14.00;13.50;;;9.50;99.90;;;;;;5047046;28;20510;-70
2024/02/02 12:33:36;;;;;;;14.03;13.53;;;9.30;99.90;;;;;;5049237;28;20479;-69
2024/02/02 12:36:05;;;;;;;14.40;13.90;;;9.20;99.90;;;;;;5045272;28;20464;-71
2024/02/02 12:38:32;;;;;;;14.27;13.77;;;9.10;99.90;;;;;;5050558;28;20466;-71
2024/02/02 12:40:59;;;;;;;14.60;14.10;;;9.10;99.90;;;;;;5045361;28;20828;-70
2024/02/02 12:43:26;;;;;;;14.60;14.10;;;9.10;99.90;;;;;;5044878;28;20464;-71
2024/02/02 12:45:54;;;;;;;14.70;14.20;;;9.20;99.90;;;;;;5047270;28;20463;-69
2024/02/02 12:48:21;;;;;;;14.50;14.00;;;9.30;99.90;;;;;;5051667;28;20476;-69
2024/02/02 12:50:50;;;;;;;14.37;13.87;;;9.40;99.90;;;;;;5048128;28;20459;-70
2024/02/02 12:53:19;;;;;;;14.37;13.87;;;9.20;99.90;;;;;;5045462;28;20460;-70
2024/02/02 12:55:46;;;;;;;14.10;13.60;;;9.10;99.90;;;;;;5047530;28;20468;-68
2024/02/02 12:58:13;;;;;;;14.30;13.80;;;9.00;99.90;;;;;;5051136;28;20543;-69
2024/02/02 13:00:40;;;;;;;13.83;13.33;;;8.90;99.90;;;;;;5049888;28;20475;-69
2024/02/02 13:03:09;;;;;;;13.43;13.03;;;8.60;99.90;;;;;;5048120;28;20834;-69
2024/02/02 13:05:37;;;;;;;13.37;12.97;;;8.60;99.90;;;;;;5049906;28;20461;-71